Argora, Idaho
Current Conditions -  °F | °C
As of 10:53 PM on Tuesday 21 Oct 2014 (Local Time) from KRXE Reporting Station
Broken Clouds Broken Clouds  
Wind Chill: 38°   Ceiling: 8000
Heat Index: 43°   Visibility: 10mi
Dew Point: 34°   Wind: 8mph
Humidity: 71%   Direction: 200°SSW
Pressure: 30.08"   Gusts: NA
Location:  44.2396°N, 112.579°W
Report Text: KRXE 220453Z AUTO 20007KT 10SM BKN080 06/01 A3008 RMK AO2 SLP186 T00610011
Loading
Personal Weather Stations






























Interactive Weather Map New forecast layout! Learn more

10-Day Weather Forecast

Advertisements
Track Severe Weather on mobile